This is the latest recevied weather packets stored in our database for station/object K6LCM-13. If no packets are shown the sender has not sent any weather packets the latest 10 day(s).
| Time | Temp. | Humidity | Pressure | Rain* | Wind** | Luminosity | Snow |
|---|---|---|---|---|---|---|---|
| 1778039923 | 17.22° C | 68% | 1014.6 hPa | 0 mm | - | - | - |
| 1778039383 | 17.22° C | 68% | 1014.5 hPa | 0 mm | - | - | - |
| 1778038843 | 17.22° C | 67% | 1014.4 hPa | 0 mm | - | - | - |
| 1778038303 | 17.78° C | 66% | 1014.3 hPa | 0 mm | - | - | - |
| 1778037763 | 17.78° C | 66% | 1014.2 hPa | 0 mm | - | - | - |
| 1778037223 | 17.78° C | 66% | 1014 hPa | 0 mm | - | - | - |
| 1778036673 | 17.78° C | 65% | 1013.9 hPa | 0 mm | - | - | - |
| 1778036132 | 18.33° C | 64% | 1013.7 hPa | 0 mm | - | - | - |
| 1778035593 | 18.33° C | 64% | 1013.7 hPa | 0 mm | - | - | - |
| 1778035052 | 18.33° C | 65% | 1013.7 hPa | 0 mm | - | - | - |
| 1778034512 | 17.22° C | 68% | 1013.5 hPa | 0 mm | - | - | - |
| 1778033973 | 17.22° C | 72% | 1013.5 hPa | 0 mm | - | - | - |
| 1778033432 | 17.22° C | 71% | 1013.4 hPa | 0 mm | - | - | - |
| 1778032893 | 17.22° C | 70% | 1013.5 hPa | 0 mm | - | - | - |
| 1778032353 | 17.22° C | 70% | 1013.3 hPa | 0 mm | - | - | - |
| 1778031813 | 17.78° C | 70% | 1013.3 hPa | 0 mm | - | - | - |
| 1778030193 | 18.33° C | 68% | 1013.3 hPa | 0 mm | - | - | - |
| 1778029652 | 17.78° C | 70% | 1013.2 hPa | 0 mm | - | - | - |
| 1778029113 | 17.78° C | 70% | 1013.3 hPa | 0 mm | - | - | - |
| 1778028572 | 17.22° C | 73% | 1013.2 hPa | 0 mm | - | - | - |
| 1778028032 | 16.67° C | 73% | 1013.2 hPa | 0 mm | - | - | - |
| 1778027268 | 16.67° C | 72% | 1013.2 hPa | 0 mm | - | - | - |
| 1778026728 | 16.67° C | 72% | 1013.2 hPa | 0 mm | - | - | - |
| 1778026188 | 17.22° C | 72% | 1013.1 hPa | 0 mm | - | - | - |
| 1778025648 | 17.22° C | 71% | 1012.9 hPa | 0 mm | - | - | - |
* Rain latest hour (hover to see other rain measurements)
** Current wind speed in m/s (hover to see current wind gust speed)